Union, KY

8:33 PM EST on February 24, 2017 (GMT -0500)
Hampshire | | Change Station
Active Advisory: Severe Thunderstorm Watch

Elev 257 ft 38.95 °N, 84.66 °W | Updated 1 minute ago

Thunderstorm
Thunderstorm
61.5 °F
Feels Like 61.5 °F
N
4.2
Wind Variable Wind from SSE

Today
High -- | Low -- °F
--% Chance of Precip.
Yesterday
High -- | Low -- °F
Precip. -- in
Pressure 29.55 in
Visibility 4.0 miles
Clouds Few 5000 ft
Few 6500 ft
Overcast 9000 ft
Dew Point 59 °F
Humidity 91%
Rainfall 0.12 in
Snow Depth Not available.
7:17 AM 6:26 PM
Waning Crescent, 3% visible
SPECI KCVG 250118Z 18008KT 4SM +TSRA BR FEW050CB FEW065 OVC090 16/14 A2955 RMK AO2 WSHFT 0039 LTG DSNT ALQDS FRQ LTGCGIC SE-SW TS SE-SW MOV NE P0002 T01610139 $
Pressure 29.55 in
Visibility 4.0 miles
Clouds Few 5000 ft
Few 6500 ft
Overcast 9000 ft
Dew Point 59 °F
Humidity 91%
Rainfall 0.12 in
Snow Depth Not available.
7:17 AM 6:26 PM
Waning Crescent, 3% visible
SPECI KCVG 250118Z 18008KT 4SM +TSRA BR FEW050CB FEW065 OVC090 16/14 A2955 RMK AO2 WSHFT 0039 LTG DSNT ALQDS FRQ LTGCGIC SE-SW TS SE-SW MOV NE P0002 T01610139 $

Get Your Daily Forecast Email!

Thanks for signing up!

Be on the lookout for a verification email in your inbox.

You'll start receiving the daily forecast at 8 AM.

×

10-Day Weather Forecast

Almanac

Astronomy

Feb. 24, 2017 Rise Set
Actual Time
Civil Twilight
Nautical Twilight
Astronomical Twilight
Moon
Length of Visible Light
Length of Day
Tomorrow will be .
, % of the Moon is Illuminated

Today's Extremes

State Highs State Lows

Community

WunderPhotos

Upload Photos

1,962,540 photos uploaded!

WunderBlog® & News

Nearby

Air Quality

  Air Quality AQ Index Pollutant
Not available.

Snow Depth

Station Depth Elevation

Earthquake Activity

City Distance Mag. Time & Date
Minimum magnitude displayed is 2.5.

Coastal Water Temperatures

Place Temperature

Stations

Nearby Weather Stations

Station Location Temp. Windchill Dew Point Humidity Wind Precip. Elev Updated Type
                   

Watches & Warnings

Severe Thunderstorm Watch
Issued: 8:24 PM EST Feb. 24, 2017 – National Weather Service

Severe Thunderstorm Watch 38 remains in effect until 200 am EST

KY
. Kentucky counties included are

Anderson Boone Bourbon
Boyle Bracken Bullitt
Campbell Carroll Casey
Clark Fayette Franklin
Gallatin Garrard Grant
green Hardin Harrison
Hart Henry Jefferson
Jessamine Kenton LaRue
Lewis Lincoln Madison
Marion Mason Mercer
Nelson Nicholas Oldham
Owen Pendleton Robertson
Scott Shelby Spencer
Taylor Trimble Washington
Woodford